createdAt,value
2023-05-21T00:00:10.766Z,10.04
2023-05-21T00:02:43.020Z,9.98
2023-05-21T00:05:15.318Z,9.91
2023-05-21T00:07:44.113Z,9.87
2023-05-21T00:10:12.964Z,9.95
2023-05-21T00:12:41.909Z,9.87
2023-05-21T00:15:11.638Z,9.64
2023-05-21T00:17:41.912Z,9.83
2023-05-21T00:20:10.810Z,10.01
2023-05-21T00:22:40.321Z,10.04
2023-05-21T00:25:09.647Z,9.70
2023-05-21T00:27:38.091Z,9.81
2023-05-21T00:30:09.075Z,9.97
2023-05-21T00:32:38.082Z,9.88
2023-05-21T00:35:09.971Z,9.70
2023-05-21T00:37:38.702Z,9.66
2023-05-21T00:40:11.760Z,9.68
2023-05-21T00:42:41.256Z,9.78
2023-05-21T00:45:10.664Z,9.80
2023-05-21T00:47:39.381Z,9.88
2023-05-21T00:50:11.261Z,9.72
2023-05-21T00:52:42.604Z,9.85
2023-05-21T00:55:12.064Z,9.83
2023-05-21T00:57:42.562Z,9.82
2023-05-21T01:00:15.409Z,9.91
2023-05-21T01:02:44.365Z,9.92
2023-05-21T01:05:15.641Z,9.92
2023-05-21T01:07:44.474Z,9.90
2023-05-21T01:10:13.588Z,9.91
2023-05-21T01:12:44.975Z,10.03
2023-05-21T01:15:14.280Z,10.33
2023-05-21T01:17:46.176Z,10.23
2023-05-21T01:20:20.326Z,10.45
2023-05-21T01:22:54.511Z,10.49
2023-05-21T01:25:24.217Z,10.57
2023-05-21T01:27:52.958Z,10.69
2023-05-21T01:30:23.395Z,10.97
2023-05-21T01:33:01.182Z,11.10
2023-05-21T01:35:34.212Z,10.98
2023-05-21T01:38:13.492Z,10.91
2023-05-21T01:40:52.078Z,10.94
2023-05-21T01:43:22.748Z,10.77
2023-05-21T01:45:56.363Z,10.95
2023-05-21T01:48:26.588Z,11.23
2023-05-21T01:50:56.898Z,11.21
2023-05-21T01:53:26.849Z,11.21
2023-05-21T01:55:55.635Z,11.23
2023-05-21T01:58:24.356Z,11.26
2023-05-21T02:00:53.014Z,11.35
2023-05-21T02:03:22.033Z,11.15
2023-05-21T02:05:52.075Z,11.02
2023-05-21T02:08:23.461Z,11.31
2023-05-21T02:10:53.754Z,11.21
2023-05-21T02:13:25.800Z,11.40
2023-05-21T02:15:55.374Z,11.51
2023-05-21T02:18:26.453Z,11.47
2023-05-21T02:20:55.025Z,11.59
2023-05-21T02:23:23.577Z,11.68
2023-05-21T02:25:53.403Z,11.66
2023-05-21T02:28:22.277Z,11.50
2023-05-21T02:30:50.685Z,11.53
2023-05-21T02:33:20.326Z,11.59
2023-05-21T02:35:48.742Z,11.39
2023-05-21T02:38:19.511Z,11.47
2023-05-21T02:40:48.146Z,11.42
2023-05-21T02:43:18.143Z,11.50
2023-05-21T02:45:47.185Z,11.69
2023-05-21T02:48:16.263Z,11.69
2023-05-21T02:50:45.048Z,11.64
2023-05-21T02:53:13.393Z,11.31
2023-05-21T02:55:42.120Z,11.78
2023-05-21T02:58:13.471Z,11.66
2023-05-21T03:00:43.628Z,11.27
2023-05-21T03:03:12.949Z,11.52
2023-05-21T03:05:41.500Z,11.68
2023-05-21T03:08:09.860Z,11.52
2023-05-21T03:10:38.092Z,11.10
2023-05-21T03:13:09.489Z,11.11
2023-05-21T03:15:39.308Z,11.06
2023-05-21T03:18:09.598Z,11.19
2023-05-21T03:20:43.619Z,11.14
2023-05-21T03:23:14.215Z,11.14
2023-05-21T03:25:46.083Z,11.08
2023-05-21T03:28:15.070Z,11.13
2023-05-21T03:30:51.077Z,11.06
2023-05-21T03:33:48.462Z,10.76
2023-05-21T03:36:22.538Z,10.66
2023-05-21T03:38:50.934Z,10.96
2023-05-21T03:41:19.887Z,10.71
2023-05-21T03:43:52.416Z,11.00
2023-05-21T03:46:23.579Z,10.91
2023-05-21T03:49:07.268Z,10.96
2023-05-21T03:51:38.383Z,10.88
2023-05-21T03:54:07.085Z,10.99
2023-05-21T03:56:37.641Z,10.80
2023-05-21T03:59:06.044Z,11.20
2023-05-21T04:01:35.006Z,11.29
2023-05-21T04:04:05.955Z,11.23
2023-05-21T04:06:36.845Z,11.24
2023-05-21T04:09:06.107Z,11.42
2023-05-21T04:11:34.346Z,11.17
2023-05-21T04:14:02.919Z,11.18
2023-05-21T04:16:31.354Z,11.16
2023-05-21T04:18:59.896Z,11.09
2023-05-21T04:21:29.091Z,11.02
2023-05-21T04:24:00.911Z,11.24
2023-05-21T04:26:48.629Z,10.95
2023-05-21T04:29:18.257Z,11.17
2023-05-21T04:31:47.240Z,11.42
2023-05-21T04:34:17.896Z,11.49
2023-05-21T04:36:47.282Z,11.59
2023-05-21T04:39:17.733Z,11.57
2023-05-21T04:41:46.242Z,11.58
2023-05-21T04:44:15.424Z,11.50
2023-05-21T04:46:46.325Z,11.32
2023-05-21T04:49:15.391Z,11.64
2023-05-21T04:51:43.952Z,11.68
2023-05-21T04:54:12.450Z,11.52
2023-05-21T04:56:42.570Z,11.35
2023-05-21T04:59:11.200Z,10.81
2023-05-21T05:01:39.379Z,11.68
2023-05-21T05:04:07.942Z,11.66
2023-05-21T05:06:36.324Z,11.61
2023-05-21T05:09:04.885Z,12.01
2023-05-21T05:11:33.272Z,12.12
2023-05-21T05:14:02.928Z,12.22
2023-05-21T05:16:31.800Z,12.17
2023-05-21T05:19:01.048Z,11.99
2023-05-21T05:21:29.704Z,12.20
2023-05-21T05:23:58.104Z,12.01
2023-05-21T05:26:29.610Z,12.20
2023-05-21T05:28:58.327Z,12.32
2023-05-21T05:31:28.236Z,12.24
2023-05-21T05:33:56.768Z,12.43
2023-05-21T05:36:26.231Z,12.83
2023-05-21T05:38:54.910Z,12.85
2023-05-21T05:41:24.039Z,12.96
2023-05-21T05:43:52.382Z,13.16
2023-05-21T05:46:23.399Z,13.22
2023-05-21T05:48:54.188Z,13.17
2023-05-21T05:51:23.267Z,13.01
2023-05-21T05:53:52.575Z,13.06
2023-05-21T05:56:21.328Z,13.08
2023-05-21T05:58:49.599Z,13.29
2023-05-21T06:01:20.429Z,13.22
2023-05-21T06:03:48.801Z,13.61
2023-05-21T06:06:20.892Z,13.78
2023-05-21T06:08:49.448Z,12.80
2023-05-21T06:11:19.069Z,13.56
2023-05-21T06:13:47.664Z,13.57
2023-05-21T06:16:18.843Z,13.75
2023-05-21T06:18:47.595Z,13.91
2023-05-21T06:21:15.958Z,13.78
2023-05-21T06:23:45.673Z,13.63
2023-05-21T06:26:13.979Z,13.67
2023-05-21T06:28:42.584Z,13.68
2023-05-21T06:31:13.744Z,13.77
2023-05-21T06:33:43.835Z,13.95
2023-05-21T06:36:12.524Z,14.19
2023-05-21T06:38:42.665Z,14.28
2023-05-21T06:41:12.830Z,14.54
2023-05-21T06:43:51.229Z,14.63
2023-05-21T06:46:38.318Z,14.35
2023-05-21T06:49:09.487Z,14.42
2023-05-21T06:51:38.125Z,14.40
2023-05-21T06:54:07.095Z,14.66
2023-05-21T06:56:38.736Z,14.15
2023-05-21T06:59:07.085Z,14.34
2023-05-21T07:01:35.992Z,14.26
2023-05-21T07:04:04.560Z,15.00
2023-05-21T07:06:33.145Z,14.70
2023-05-21T07:09:01.485Z,14.88
2023-05-21T07:11:31.198Z,15.17
2023-05-21T07:14:03.933Z,15.99
2023-05-21T07:16:34.508Z,15.85
2023-05-21T07:19:03.856Z,15.88
2023-05-21T07:21:32.566Z,15.82
2023-05-21T07:24:00.970Z,16.27
2023-05-21T07:26:29.315Z,15.84
2023-05-21T07:28:57.805Z,15.84
2023-05-21T07:31:29.108Z,15.97
2023-05-21T07:33:57.351Z,16.24
2023-05-21T07:36:30.053Z,16.41
2023-05-21T07:38:58.679Z,16.06
2023-05-21T07:41:27.211Z,15.58
2023-05-21T07:43:55.930Z,15.37
2023-05-21T07:46:24.534Z,15.70
2023-05-21T07:48:57.714Z,15.67
2023-05-21T07:51:26.916Z,15.84
2023-05-21T07:53:56.282Z,16.01
2023-05-21T07:56:32.411Z,15.29
2023-05-21T07:59:01.312Z,15.44
2023-05-21T08:01:30.884Z,15.68
2023-05-21T08:04:05.768Z,15.57
2023-05-21T08:06:35.045Z,15.77
2023-05-21T08:09:03.361Z,16.03
2023-05-21T08:11:31.791Z,16.60
2023-05-21T08:14:01.106Z,17.07
2023-05-21T08:16:29.726Z,17.86
2023-05-21T08:18:58.133Z,18.32
2023-05-21T08:21:27.937Z,18.71
2023-05-21T08:23:57.266Z,18.70
2023-05-21T08:26:26.809Z,18.48
2023-05-21T08:28:55.227Z,18.57
2023-05-21T08:31:24.041Z,18.59
2023-05-21T08:33:56.432Z,18.22
2023-05-21T08:36:38.925Z,18.54
2023-05-21T08:39:16.893Z,18.90
2023-05-21T08:41:49.674Z,18.84
2023-05-21T08:44:22.763Z,18.75
2023-05-21T08:46:52.489Z,18.13
2023-05-21T08:49:27.854Z,18.26
2023-05-21T08:51:59.953Z,18.83
2023-05-21T08:54:29.339Z,18.83
2023-05-21T08:56:59.787Z,18.79
2023-05-21T08:59:28.322Z,18.62
2023-05-21T09:01:57.773Z,19.04
2023-05-21T09:04:33.923Z,19.19
2023-05-21T09:07:04.570Z,19.55
2023-05-21T09:10:10.053Z,19.98
2023-05-21T09:12:38.841Z,19.96
2023-05-21T09:15:08.866Z,19.81
2023-05-21T09:17:38.938Z,19.08
2023-05-21T09:20:26.910Z,19.36
2023-05-21T09:23:06.103Z,19.06
2023-05-21T09:25:34.659Z,18.97
2023-05-21T09:28:13.631Z,18.95
2023-05-21T09:30:46.901Z,18.98
2023-05-21T09:33:26.492Z,19.58
2023-05-21T09:35:54.969Z,19.80
2023-05-21T09:38:26.108Z,19.91
2023-05-21T09:40:57.433Z,19.80
2023-05-21T09:43:26.983Z,20.24
2023-05-21T09:46:00.477Z,20.04
2023-05-21T09:48:37.370Z,20.72
2023-05-21T09:51:13.840Z,20.62
2023-05-21T09:53:52.106Z,20.64
2023-05-21T09:56:25.352Z,20.38
2023-05-21T09:58:55.652Z,19.97
2023-05-21T10:01:25.084Z,20.26
2023-05-21T10:03:57.599Z,20.52
2023-05-21T10:06:27.944Z,20.55
2023-05-21T10:09:01.623Z,21.02
2023-05-21T10:11:33.282Z,21.10
2023-05-21T10:14:07.083Z,20.93
2023-05-21T10:16:37.852Z,21.16
2023-05-21T10:19:10.985Z,21.35
2023-05-21T10:21:40.774Z,21.22
2023-05-21T10:24:11.817Z,21.08
2023-05-21T10:26:42.248Z,21.57
2023-05-21T10:29:10.988Z,21.93
2023-05-21T10:31:40.636Z,21.95
2023-05-21T10:34:09.427Z,21.76
2023-05-21T10:36:39.164Z,21.89
2023-05-21T10:39:10.850Z,21.60
2023-05-21T10:41:48.956Z,22.11
2023-05-21T10:44:31.747Z,22.87
2023-05-21T10:47:52.846Z,22.77
2023-05-21T10:51:11.412Z,22.76
2023-05-21T10:54:07.159Z,22.67
2023-05-21T10:56:43.974Z,22.12
2023-05-21T10:59:23.021Z,22.30
2023-05-21T11:01:54.120Z,21.89
2023-05-21T11:04:28.045Z,21.60
2023-05-21T11:06:57.424Z,21.28
2023-05-21T11:09:25.991Z,21.61
2023-05-21T11:12:00.148Z,21.72
2023-05-21T11:14:35.394Z,21.79
2023-05-21T11:17:05.803Z,22.09
2023-05-21T11:19:38.004Z,21.95
2023-05-21T11:22:21.987Z,22.22
2023-05-21T11:24:51.507Z,22.69
2023-05-21T11:27:36.651Z,22.51
2023-05-21T11:30:08.233Z,22.11
2023-05-21T11:32:40.382Z,22.32
2023-05-21T11:35:10.557Z,22.73
2023-05-21T11:37:41.957Z,23.09
2023-05-21T11:40:26.796Z,23.15
2023-05-21T11:42:57.523Z,23.28
2023-05-21T11:45:32.205Z,24.17
2023-05-21T11:48:01.284Z,24.33
2023-05-21T11:50:33.930Z,24.19
2023-05-21T11:53:02.577Z,24.00
2023-05-21T11:55:32.079Z,24.13
2023-05-21T11:58:03.249Z,23.70
2023-05-21T12:00:31.861Z,23.80
2023-05-21T12:03:00.326Z,23.99
2023-05-21T12:05:28.727Z,24.38
2023-05-21T12:07:58.475Z,24.28
2023-05-21T12:10:28.240Z,24.50
2023-05-21T12:12:57.557Z,24.21
2023-05-21T12:15:29.092Z,23.93
2023-05-21T12:17:58.236Z,23.73
2023-05-21T12:20:30.175Z,23.40
2023-05-21T12:23:00.524Z,23.63
2023-05-21T12:25:30.073Z,23.35
2023-05-21T12:27:58.926Z,22.82
2023-05-21T12:30:29.767Z,23.01
2023-05-21T12:33:02.089Z,22.50
2023-05-21T12:35:32.416Z,22.96
2023-05-21T12:38:03.214Z,23.71
2023-05-21T12:40:39.276Z,23.43
2023-05-21T12:43:08.704Z,23.24
2023-05-21T12:45:40.576Z,23.34
2023-05-21T12:48:09.515Z,23.02
2023-05-21T12:50:42.399Z,22.65
2023-05-21T12:53:12.391Z,22.88
2023-05-21T12:55:41.166Z,22.77
2023-05-21T12:58:09.680Z,22.74
2023-05-21T13:00:39.497Z,22.09
2023-05-21T13:03:08.957Z,21.66
2023-05-21T13:05:41.404Z,21.26
2023-05-21T13:08:10.705Z,21.00
2023-05-21T13:10:39.385Z,21.00
2023-05-21T13:13:08.070Z,21.37
2023-05-21T13:15:36.336Z,21.54
2023-05-21T13:18:06.207Z,21.71
2023-05-21T13:20:34.626Z,21.39
2023-05-21T13:23:05.833Z,21.34
2023-05-21T13:25:35.519Z,20.69
2023-05-21T13:28:06.746Z,20.56
2023-05-21T13:30:35.397Z,20.92
2023-05-21T13:33:07.840Z,21.30
2023-05-21T13:35:36.401Z,21.19
2023-05-21T13:38:04.671Z,21.12
2023-05-21T13:40:33.335Z,20.72
2023-05-21T13:43:01.602Z,20.60
2023-05-21T13:45:30.001Z,20.77
2023-05-21T13:47:58.445Z,20.71
2023-05-21T13:50:28.452Z,20.59
2023-05-21T13:52:56.694Z,20.34
2023-05-21T13:55:24.946Z,20.42
2023-05-21T13:57:53.388Z,20.72
2023-05-21T14:00:22.057Z,20.45
2023-05-21T14:02:52.259Z,20.60
2023-05-21T14:05:20.833Z,20.46
2023-05-21T14:07:51.470Z,20.80
2023-05-21T14:10:20.548Z,20.50
2023-05-21T14:12:49.011Z,20.74
2023-05-21T14:15:17.591Z,20.96
2023-05-21T14:17:46.109Z,20.77
2023-05-21T14:20:14.602Z,20.81
2023-05-21T14:22:43.195Z,20.77
2023-05-21T14:25:12.874Z,21.15
2023-05-21T14:27:41.582Z,21.49
2023-05-21T14:30:12.656Z,21.31
2023-05-21T14:32:41.083Z,21.13
2023-05-21T14:35:11.238Z,21.13
2023-05-21T14:37:39.836Z,21.03
2023-05-21T14:40:10.416Z,20.78
2023-05-21T14:42:40.107Z,20.34
2023-05-21T14:45:18.584Z,20.29
2023-05-21T14:47:48.995Z,20.60
2023-05-21T14:50:19.000Z,20.71
2023-05-21T14:52:47.468Z,20.72
2023-05-21T14:55:16.996Z,20.60
2023-05-21T14:57:46.728Z,20.69
2023-05-21T15:00:16.262Z,20.98
2023-05-21T15:02:44.930Z,21.15
2023-05-21T15:05:13.604Z,21.19
2023-05-21T15:07:42.063Z,21.11
2023-05-21T15:10:11.598Z,20.94
2023-05-21T15:12:41.828Z,21.18
2023-05-21T15:15:13.568Z,21.15
2023-05-21T15:17:42.205Z,21.23
2023-05-21T15:20:11.792Z,21.30
2023-05-21T15:22:40.308Z,20.50
2023-05-21T15:25:09.681Z,20.65
2023-05-21T15:27:37.983Z,20.42
2023-05-21T15:30:08.294Z,20.61
2023-05-21T15:32:38.182Z,20.67
2023-05-21T15:35:07.701Z,20.78
2023-05-21T15:37:36.069Z,20.68
2023-05-21T15:40:05.209Z,21.03
2023-05-21T15:42:33.572Z,20.83
2023-05-21T15:45:02.068Z,20.25
2023-05-21T15:47:30.467Z,20.07
2023-05-21T15:50:00.548Z,19.88
2023-05-21T15:52:28.959Z,19.78
2023-05-21T15:54:57.448Z,19.78
2023-05-21T15:57:25.649Z,19.66
2023-05-21T15:59:54.099Z,19.39
2023-05-21T16:02:22.705Z,19.87
2023-05-21T16:04:52.216Z,20.02
2023-05-21T16:07:21.852Z,20.22
2023-05-21T16:09:50.379Z,20.05
2023-05-21T16:12:19.102Z,20.07
2023-05-21T16:14:50.249Z,20.04
2023-05-21T16:17:19.664Z,20.10
2023-05-21T16:19:48.393Z,19.90
2023-05-21T16:22:17.118Z,19.79
2023-05-21T16:24:47.227Z,20.10
2023-05-21T16:27:15.761Z,20.35
2023-05-21T16:29:44.319Z,20.15
2023-05-21T16:32:14.163Z,20.31
2023-05-21T16:34:42.629Z,19.79
2023-05-21T16:37:11.453Z,19.57
2023-05-21T16:39:40.358Z,19.77
2023-05-21T16:42:10.024Z,19.94
2023-05-21T16:44:39.516Z,20.21
2023-05-21T16:47:08.821Z,19.92
2023-05-21T16:49:36.973Z,19.67
2023-05-21T16:52:05.540Z,19.56
2023-05-21T16:54:34.957Z,19.37
2023-05-21T16:57:03.204Z,19.60
2023-05-21T16:59:32.855Z,19.65
2023-05-21T17:02:01.343Z,19.14
2023-05-21T17:04:30.356Z,19.04
2023-05-21T17:06:58.596Z,18.98
2023-05-21T17:09:27.085Z,18.97
2023-05-21T17:11:57.468Z,18.61
2023-05-21T17:14:34.457Z,18.65
2023-05-21T17:17:05.388Z,18.67
2023-05-21T17:19:33.768Z,18.86
2023-05-21T17:22:02.272Z,18.81
2023-05-21T17:24:30.900Z,18.77
2023-05-21T17:26:59.295Z,18.73
2023-05-21T17:29:27.556Z,18.48
2023-05-21T17:31:56.292Z,18.35
2023-05-21T17:34:29.506Z,18.35
2023-05-21T17:37:00.027Z,18.08
2023-05-21T17:39:28.251Z,18.22
2023-05-21T17:41:57.776Z,17.97
2023-05-21T17:44:26.351Z,17.91
2023-05-21T17:46:54.681Z,17.88
2023-05-21T17:49:23.114Z,18.18
2023-05-21T17:51:53.848Z,18.22
2023-05-21T17:54:22.470Z,18.24
2023-05-21T17:56:50.776Z,17.61
2023-05-21T17:59:19.512Z,17.53
2023-05-21T18:01:47.926Z,17.42
2023-05-21T18:04:16.461Z,17.37
2023-05-21T18:06:44.918Z,17.25
2023-05-21T18:09:16.006Z,17.15
2023-05-21T18:11:45.204Z,16.96
2023-05-21T18:14:13.760Z,17.14
2023-05-21T18:16:43.293Z,16.85
2023-05-21T18:19:11.929Z,16.94
2023-05-21T18:21:40.560Z,16.82
2023-05-21T18:24:09.542Z,16.75
2023-05-21T18:26:39.078Z,17.23
2023-05-21T18:29:07.432Z,17.03
2023-05-21T18:31:35.742Z,16.77
2023-05-21T18:34:04.072Z,16.59
2023-05-21T18:36:38.484Z,16.41
2023-05-21T18:39:07.764Z,16.52
2023-05-21T18:41:37.640Z,16.48
2023-05-21T18:44:07.508Z,16.14
2023-05-21T18:46:36.319Z,16.16
2023-05-21T18:49:04.725Z,16.32
2023-05-21T18:51:33.064Z,16.11
2023-05-21T18:54:01.265Z,16.43
2023-05-21T18:56:29.630Z,16.07
2023-05-21T18:58:57.910Z,16.22
2023-05-21T19:01:28.090Z,15.69
2023-05-21T19:03:56.500Z,16.04
2023-05-21T19:06:25.588Z,15.78
2023-05-21T19:08:54.214Z,15.80
2023-05-21T19:11:23.609Z,15.83
2023-05-21T19:13:52.169Z,15.95
2023-05-21T19:16:20.588Z,15.75
2023-05-21T19:18:50.363Z,15.72
2023-05-21T19:21:18.966Z,15.35
2023-05-21T19:23:53.193Z,15.68
2023-05-21T19:26:22.858Z,15.67
2023-05-21T19:28:53.972Z,15.73
2023-05-21T19:31:23.523Z,15.51
2023-05-21T19:33:54.006Z,15.68
2023-05-21T19:36:22.741Z,15.44
2023-05-21T19:38:51.920Z,15.47
2023-05-21T19:41:21.607Z,15.20
2023-05-21T19:43:49.997Z,15.19
2023-05-21T19:46:20.474Z,15.12
2023-05-21T19:48:49.776Z,14.85
2023-05-21T19:51:19.782Z,14.73
2023-05-21T19:53:48.184Z,14.58
2023-05-21T19:56:16.952Z,14.21
2023-05-21T19:58:47.174Z,14.34
2023-05-21T20:01:17.892Z,14.33
2023-05-21T20:03:46.421Z,13.97
2023-05-21T20:06:16.915Z,14.25
2023-05-21T20:08:46.588Z,14.16
2023-05-21T20:11:14.914Z,13.97
2023-05-21T20:13:48.456Z,13.94
2023-05-21T20:16:18.300Z,13.83
2023-05-21T20:18:47.344Z,13.38
2023-05-21T20:21:17.568Z,13.48
2023-05-21T20:23:47.613Z,13.36
2023-05-21T20:26:17.258Z,13.00
2023-05-21T20:28:45.870Z,13.55
2023-05-21T20:31:14.766Z,13.38
2023-05-21T20:33:43.264Z,13.22
2023-05-21T20:36:13.584Z,13.22
2023-05-21T20:38:42.163Z,13.02
2023-05-21T20:41:11.892Z,13.03
2023-05-21T20:43:40.291Z,13.13
2023-05-21T20:46:08.607Z,12.99
2023-05-21T20:48:37.847Z,13.01
2023-05-21T20:51:07.259Z,12.89
2023-05-21T20:53:35.627Z,12.94
2023-05-21T20:56:08.368Z,12.63
2023-05-21T20:58:39.976Z,12.30
2023-05-21T21:01:10.713Z,12.66
2023-05-21T21:03:41.425Z,12.65
2023-05-21T21:06:10.023Z,12.79
2023-05-21T21:08:40.367Z,12.62
2023-05-21T21:11:09.442Z,12.71
2023-05-21T21:13:39.826Z,12.13
2023-05-21T21:16:10.136Z,12.71
2023-05-21T21:18:38.515Z,12.85
2023-05-21T21:21:07.560Z,12.74
2023-05-21T21:23:35.896Z,12.62
2023-05-21T21:26:04.210Z,12.30
2023-05-21T21:28:32.447Z,12.29
2023-05-21T21:31:02.562Z,12.49
2023-05-21T21:33:31.271Z,12.43
2023-05-21T21:36:02.058Z,12.51
2023-05-21T21:38:30.804Z,12.22
2023-05-21T21:40:59.178Z,12.35
2023-05-21T21:43:27.577Z,12.11
2023-05-21T21:45:56.265Z,11.80
2023-05-21T21:48:27.181Z,11.62
2023-05-21T21:50:55.872Z,11.77
2023-05-21T21:53:25.405Z,11.82
2023-05-21T21:55:55.159Z,11.65
2023-05-21T21:58:23.541Z,11.31
2023-05-21T22:00:51.988Z,11.77
2023-05-21T22:03:20.809Z,11.56
2023-05-21T22:05:51.713Z,11.73
2023-05-21T22:08:20.098Z,11.48
2023-05-21T22:10:48.596Z,11.65
2023-05-21T22:13:17.365Z,10.60
2023-05-21T22:15:46.068Z,11.32
2023-05-21T22:18:28.242Z,10.81
2023-05-21T22:21:09.218Z,11.23
2023-05-21T22:23:38.508Z,11.23
2023-05-21T22:26:07.281Z,11.39
2023-05-21T22:28:35.513Z,11.28
2023-05-21T22:31:03.988Z,11.22
2023-05-21T22:33:32.535Z,11.12
2023-05-21T22:36:00.907Z,11.11
2023-05-21T22:38:30.563Z,11.04
2023-05-21T22:40:59.309Z,10.93
2023-05-21T22:43:27.665Z,10.96
2023-05-21T22:45:56.379Z,10.82
2023-05-21T22:48:24.862Z,11.02
2023-05-21T22:50:54.785Z,10.83
2023-05-21T22:53:23.653Z,11.01
2023-05-21T22:55:53.457Z,10.98
2023-05-21T22:58:22.350Z,10.93
2023-05-21T23:00:50.936Z,10.70
2023-05-21T23:03:19.441Z,10.88
2023-05-21T23:05:48.132Z,10.98
2023-05-21T23:08:16.586Z,11.00
2023-05-21T23:10:45.183Z,10.97
2023-05-21T23:13:14.992Z,11.00
2023-05-21T23:15:44.142Z,11.03
2023-05-21T23:18:12.758Z,11.03
2023-05-21T23:20:41.962Z,10.88
2023-05-21T23:23:10.939Z,11.00
2023-05-21T23:25:39.382Z,10.93
2023-05-21T23:28:07.984Z,10.85
2023-05-21T23:30:38.989Z,10.68
2023-05-21T23:33:07.500Z,10.63
2023-05-21T23:35:37.468Z,10.71
2023-05-21T23:38:05.708Z,10.95
2023-05-21T23:40:33.951Z,10.77
2023-05-21T23:43:02.332Z,10.96
2023-05-21T23:45:31.828Z,10.95
2023-05-21T23:48:01.544Z,10.81
2023-05-21T23:50:30.375Z,11.04
2023-05-21T23:52:59.343Z,11.06
2023-05-21T23:55:27.819Z,10.78
2023-05-21T23:57:56.099Z,10.53
